Time;durP1;ratioP1;P1;durP2;ratioP2;P2;SDS_P1;SDS_P2;PMS_P1;PMS_P2;Temp;Humidity;BMP_temperature;BMP_pressure;BME280_temperature;BME280_humidity;BME280_pressure;Samples;Min_cycle;Max_cycle;Signal;HPM_P1;HPM_P2
2022/05/25 00:00:47;;;;;;;3.03;1.40;;;13.50;99.90;;;;;;5040050;28;20031;-82
2022/05/25 00:03:13;;;;;;;3.20;1.30;;;13.10;99.90;;;;;;5039784;28;20056;-82
2022/05/25 00:05:40;;;;;;;4.60;1.35;;;12.90;99.90;;;;;;5047054;28;20206;-83
2022/05/25 00:08:09;;;;;;;2.50;1.23;;;13.10;99.90;;;;;;5051595;28;20134;-82
2022/05/25 00:10:35;;;;;;;3.67;1.30;;;12.80;99.90;;;;;;5037422;28;20818;-82
2022/05/25 00:13:02;;;;;;;4.43;1.40;;;12.70;99.90;;;;;;5042578;28;20028;-82
2022/05/25 00:15:28;;;;;;;1.98;1.30;;;12.70;99.90;;;;;;5046522;28;20215;-87
2022/05/25 00:17:54;;;;;;;3.55;1.40;;;12.60;99.90;;;;;;5057791;28;20025;-84
2022/05/25 00:20:20;;;;;;;4.22;1.13;;;12.60;99.90;;;;;;5046711;28;20459;-81
2022/05/25 00:22:50;;;;;;;4.50;1.55;;;13.50;99.90;;;;;;5053164;28;20025;-83
2022/05/25 00:25:20;;;;;;;5.53;1.42;;;12.50;99.90;;;;;;5045119;28;20119;-83
2022/05/25 00:27:47;;;;;;;1.98;1.13;;;12.50;99.90;;;;;;5061792;28;20055;-84
2022/05/25 00:30:14;;;;;;;8.02;1.50;;;12.50;99.90;;;;;;5049026;28;20109;-85
2022/05/25 00:32:40;;;;;;;2.28;1.40;;;12.40;99.90;;;;;;5049355;28;20465;-83
2022/05/25 00:35:08;;;;;;;6.15;3.00;;;12.40;99.90;;;;;;5047563;28;20021;-84
2022/05/25 00:37:34;;;;;;;6.97;1.60;;;12.40;99.90;;;;;;5047247;28;20033;-83
2022/05/25 00:40:00;;;;;;;5.03;1.60;;;13.20;99.90;;;;;;5060312;28;20025;-84
2022/05/25 00:42:26;;;;;;;3.20;1.30;;;12.30;99.90;;;;;;5042142;28;20025;-82
2022/05/25 00:44:52;;;;;;;3.70;1.63;;;;;;;;;;5056112;28;20028;-83
2022/05/25 00:47:23;;;;;;;3.95;1.20;;;12.30;99.90;;;;;;5047837;28;20064;-84
2022/05/25 00:49:50;;;;;;;3.42;1.30;;;12.30;99.90;;;;;;5037022;28;20051;-84
2022/05/25 00:52:16;;;;;;;2.45;1.30;;;12.20;99.90;;;;;;5053183;28;20024;-81
2022/05/25 00:54:52;;;;;;;2.47;1.15;;;12.30;99.90;;;;;;5060710;28;20021;-82
2022/05/25 00:57:26;;;;;;;4.03;1.48;;;12.20;99.90;;;;;;5050538;28;20029;-83
2022/05/25 01:00:00;;;;;;;2.17;1.38;;;12.20;99.90;;;;;;5032167;28;20025;-83
2022/05/25 01:02:28;;;;;;;4.15;1.45;;;12.20;99.90;;;;;;5052679;28;20033;-82
2022/05/25 01:04:54;;;;;;;3.22;1.27;;;12.30;99.90;;;;;;5042754;28;20052;-84
2022/05/25 01:07:47;;;;;;;5.43;1.52;;;12.20;99.90;;;;;;5060077;28;20048;-83
2022/05/25 01:10:24;;;;;;;5.47;1.50;;;12.20;99.90;;;;;;5050426;28;20028;-84
2022/05/25 01:13:16;;;;;;;3.75;1.40;;;12.20;99.90;;;;;;5037676;28;20478;-86
2022/05/25 01:16:07;;;;;;;5.53;1.42;;;12.20;99.90;;;;;;4975439;28;20065;-85
2022/05/25 01:18:41;;;;;;;;;;;12.10;99.90;;;;;;5039555;28;20021;-84
2022/05/25 01:21:23;;;;;;;5.28;1.42;;;12.00;99.90;;;;;;5061018;28;20003;-83
2022/05/25 01:24:11;;;;;;;3.22;1.40;;;12.00;99.90;;;;;;5055206;28;20037;-83
2022/05/25 01:27:04;;;;;;;3.40;1.30;;;12.00;99.90;;;;;;5046821;28;20167;-85
2022/05/25 01:29:39;;;;;;;9.80;1.60;;;11.90;99.90;;;;;;5054433;28;20021;-85
2022/05/25 01:32:29;;;;;;;3.70;1.60;;;11.70;99.90;;;;;;5042309;28;20037;-85
2022/05/25 01:35:12;;;;;;;5.20;1.40;;;11.70;99.90;;;;;;5040663;28;20005;-83
2022/05/25 01:37:37;;;;;;;4.28;1.70;;;11.60;99.90;;;;;;5058328;28;20056;-86
2022/05/25 01:40:09;;;;;;;3.15;1.48;;;11.60;99.90;;;;;;5063321;28;20021;-85
2022/05/25 01:42:43;;;;;;;2.63;1.35;;;11.60;99.90;;;;;;5055282;28;20017;-85
2022/05/25 01:45:10;;;;;;;4.63;1.58;;;11.60;99.90;;;;;;5062274;28;20012;-84
2022/05/25 01:47:40;;;;;;;4.50;1.63;;;12.00;99.90;;;;;;5045904;28;20417;-85
2022/05/25 01:50:12;;;;;;;4.40;1.80;;;11.60;99.90;;;;;;5054397;28;20083;-82
2022/05/25 01:52:46;;;;;;;5.28;1.40;;;11.60;99.90;;;;;;5056160;28;20044;-83
2022/05/25 01:55:22;;;;;;;2.50;1.52;;;11.60;99.90;;;;;;5047230;28;20024;-82
2022/05/25 01:57:52;;;;;;;5.50;1.67;;;11.50;99.90;;;;;;5038255;28;20660;-82
2022/05/25 02:00:40;;;;;;;2.65;1.40;;;12.10;99.90;;;;;;5045867;28;20032;-81
2022/05/25 02:06:13;;;;;;;3.10;1.50;;;11.50;99.90;;;;;;5060130;28;20047;-81
2022/05/25 02:08:59;;;;;;;3.83;1.70;;;11.50;99.90;;;;;;5062775;28;20029;-84
2022/05/25 02:12:18;;;;;;;4.72;1.50;;;11.50;99.90;;;;;;5064156;28;20461;-82
2022/05/25 02:15:07;;;;;;;4.22;1.50;;;11.40;99.90;;;;;;5003908;28;20299;-82
2022/05/25 02:17:49;;;;;;;3.90;1.60;;;11.40;99.90;;;;;;5056062;28;20477;-81
2022/05/25 02:20:20;;;;;;;3.72;1.70;;;11.40;99.90;;;;;;5062672;28;20067;-81
2022/05/25 02:22:49;;;;;;;6.32;1.95;;;11.30;99.90;;;;;;5059940;28;20074;-83
2022/05/25 02:25:25;;;;;;;4.35;1.40;;;11.40;99.90;;;;;;5047534;28;20032;-83
2022/05/25 02:28:11;;;;;;;6.60;1.63;;;11.20;99.90;;;;;;5040915;28;20040;-84
2022/05/25 02:30:41;;;;;;;4.82;1.50;;;11.10;99.90;;;;;;5059486;28;20075;-82
2022/05/25 02:33:20;;;;;;;4.05;1.50;;;11.20;99.90;;;;;;5039135;28;20029;-82
2022/05/25 02:35:48;;;;;;;5.25;1.58;;;11.20;99.90;;;;;;5050646;28;20033;-85
2022/05/25 02:38:14;;;;;;;3.50;1.50;;;12.10;99.90;;;;;;5043420;28;20119;-81
2022/05/25 02:40:41;;;;;;;4.55;1.40;;;12.80;99.90;;;;;;5043923;28;20024;-83
2022/05/25 02:43:08;;;;;;;4.00;1.63;;;12.30;99.90;;;;;;5044818;28;20098;-86
2022/05/25 02:45:35;;;;;;;4.70;1.30;;;11.10;99.90;;;;;;5044106;28;20028;-84
2022/05/25 02:48:01;;;;;;;5.80;1.58;;;11.10;99.90;;;;;;5037197;28;20032;-84
2022/05/25 02:50:27;;;;;;;5.13;1.73;;;11.10;99.90;;;;;;5061384;28;20028;-86
2022/05/25 02:52:53;;;;;;;6.32;1.70;;;11.00;99.90;;;;;;5043792;28;20052;-87
2022/05/25 02:55:19;;;;;;;6.05;1.80;;;11.00;99.90;;;;;;5044120;28;20036;-84
2022/05/25 02:57:44;;;;;;;4.15;1.80;;;10.90;99.90;;;;;;5050325;28;20691;-82
2022/05/25 03:00:11;;;;;;;3.78;2.28;;;10.90;99.90;;;;;;5051362;28;20021;-86
2022/05/25 03:02:37;;;;;;;4.45;1.70;;;10.90;99.90;;;;;;5041544;28;20041;-83
2022/05/25 03:05:05;;;;;;;3.25;1.88;;;10.90;99.90;;;;;;5044356;28;20117;-85
2022/05/25 03:07:30;;;;;;;4.53;2.00;;;10.90;99.90;;;;;;5034260;28;20036;-86
2022/05/25 03:09:56;;;;;;;4.13;1.60;;;10.90;99.90;;;;;;5045096;28;20025;-84
2022/05/25 03:12:22;;;;;;;3.72;1.60;;;;;;;;;;5026042;28;20033;-85
2022/05/25 03:14:48;;;;;;;4.57;1.70;;;10.90;99.90;;;;;;5052225;28;20025;-81
2022/05/25 03:17:14;;;;;;;3.58;1.73;;;10.80;99.90;;;;;;5041104;28;20021;-82
2022/05/25 03:19:51;;;;;;;4.10;1.45;;;10.90;99.90;;;;;;5063395;28;20031;-81
2022/05/25 03:22:16;;;;;;;3.03;1.65;;;13.50;99.90;;;;;;5047568;28;20019;-84
2022/05/25 03:24:42;;;;;;;4.72;1.42;;;10.90;99.90;;;;;;5058347;28;20524;-83
2022/05/25 03:27:08;;;;;;;3.90;1.50;;;;;;;;;;5039201;28;20029;-82
2022/05/25 03:29:34;;;;;;;2.33;1.40;;;10.90;99.90;;;;;;5041678;28;20037;-80
2022/05/25 03:32:00;;;;;;;4.63;1.50;;;10.80;99.90;;;;;;5041417;28;20025;-80
2022/05/25 03:34:26;;;;;;;3.30;1.70;;;10.80;99.90;;;;;;5053904;28;20025;-83
2022/05/25 03:36:54;;;;;;;4.35;1.52;;;12.90;99.90;;;;;;5044969;28;20017;-83
2022/05/25 03:39:22;;;;;;;2.70;1.40;;;10.80;99.90;;;;;;5060177;28;20051;-83
2022/05/25 03:41:53;;;;;;;4.18;1.70;;;10.80;99.90;;;;;;5054550;28;20035;-86
2022/05/25 03:44:21;;;;;;;4.93;1.80;;;12.80;99.90;;;;;;5058639;28;20142;-83
2022/05/25 03:46:48;;;;;;;4.32;1.60;;;10.80;99.90;;;;;;5043005;28;20029;-85
2022/05/25 03:49:13;;;;;;;2.58;1.60;;;10.80;99.90;;;;;;5053086;28;20021;-82
2022/05/25 03:51:39;;;;;;;4.68;1.52;;;10.70;99.90;;;;;;5057476;28;20382;-83
2022/05/25 03:54:04;;;;;;;5.32;1.95;;;10.80;99.90;;;;;;5040064;28;20043;-82
2022/05/25 03:56:30;;;;;;;5.10;1.70;;;10.80;99.90;;;;;;5043525;28;20029;-83
2022/05/25 03:58:56;;;;;;;2.92;1.73;;;12.00;99.90;;;;;;5040792;28;20527;-84
2022/05/25 04:01:22;;;;;;;4.60;1.80;;;10.80;99.90;;;;;;5047856;23;20057;-84
2022/05/25 04:03:47;;;;;;;4.03;1.75;;;13.50;99.90;;;;;;5035899;28;20574;-81
2022/05/25 04:06:13;;;;;;;4.30;1.60;;;10.80;99.90;;;;;;5019667;28;20026;-84
2022/05/25 04:08:38;;;;;;;3.35;1.60;;;11.90;99.90;;;;;;5033609;28;20368;-80
2022/05/25 04:11:04;;;;;;;5.60;1.50;;;10.80;99.90;;;;;;5013538;28;20068;-82
2022/05/25 04:13:29;;;;;;;4.03;1.50;;;12.20;99.90;;;;;;5018099;28;20379;-84
2022/05/25 04:15:55;;;;;;;4.78;1.70;;;10.80;99.90;;;;;;5019464;28;20021;-80
2022/05/25 04:18:21;;;;;;;4.72;1.60;;;10.80;99.90;;;;;;5014759;28;20047;-84
2022/05/25 04:20:46;;;;;;;3.95;1.60;;;12.50;99.90;;;;;;5020159;28;20025;-84
2022/05/25 04:23:12;;;;;;;5.53;1.70;;;10.60;99.90;;;;;;5017952;28;20581;-80
2022/05/25 04:25:40;;;;;;;2.88;1.65;;;14.20;99.90;;;;;;5027656;28;20033;-83
2022/05/25 04:28:06;;;;;;;6.22;2.08;;;12.20;99.90;;;;;;5046356;28;20025;-82
2022/05/25 04:30:32;;;;;;;6.97;1.90;;;10.60;99.90;;;;;;5031568;28;20118;-81
2022/05/25 04:32:58;;;;;;;4.38;2.13;;;10.70;99.90;;;;;;5038717;28;20046;-80
2022/05/25 04:35:26;;;;;;;5.72;1.88;;;10.70;99.90;;;;;;5028612;28;20025;-80
2022/05/25 04:37:55;;;;;;;4.05;1.70;;;10.70;99.90;;;;;;5022960;28;20055;-82
2022/05/25 04:40:33;;;;;;;5.40;1.73;;;10.80;99.90;;;;;;5016250;28;20033;-84
2022/05/25 04:43:12;;;;;;;5.15;1.90;;;11.00;99.90;;;;;;5035501;28;20022;-84
2022/05/25 04:45:39;;;;;;;3.60;1.65;;;10.90;99.90;;;;;;5017893;28;20177;-82
2022/05/25 04:48:05;;;;;;;3.90;2.00;;;10.90;99.90;;;;;;5033961;28;20041;-82
2022/05/25 04:50:34;;;;;;;2.80;1.52;;;10.90;99.90;;;;;;5036116;28;20032;-84
2022/05/25 04:53:01;;;;;;;3.00;1.95;;;11.60;99.90;;;;;;5028894;28;20021;-84
2022/05/25 04:58:28;;;;;;;2.80;1.65;;;10.90;99.90;;;;;;5039248;28;20028;-83
2022/05/25 05:00:54;;;;;;;8.32;2.13;;;11.00;99.90;;;;;;5017871;28;20053;-80
2022/05/25 05:03:22;;;;;;;5.90;1.85;;;11.00;99.90;;;;;;5016885;28;20037;-85
2022/05/25 05:05:48;;;;;;;6.10;2.30;;;11.00;99.90;;;;;;5007689;28;20030;-83
2022/05/25 05:08:14;;;;;;;4.10;1.70;;;12.70;99.90;;;;;;5023551;28;20030;-84
2022/05/25 05:10:40;;;;;;;4.65;2.10;;;11.00;99.90;;;;;;5026865;28;20387;-82
2022/05/25 05:13:07;;;;;;;5.75;2.13;;;11.00;99.90;;;;;;5013979;28;20025;-85
2022/05/25 05:15:34;;;;;;;8.18;2.55;;;11.00;99.90;;;;;;5015286;28;20752;-81
2022/05/25 05:18:00;;;;;;;7.72;2.15;;;11.20;99.90;;;;;;5032452;28;20061;-80
2022/05/25 05:20:26;;;;;;;3.65;1.70;;;13.00;99.90;;;;;;5011539;28;20034;-86
2022/05/25 05:22:51;;;;;;;7.68;1.70;;;13.60;99.90;;;;;;5018517;28;20056;-82
2022/05/25 05:25:17;;;;;;;4.15;1.73;;;13.60;99.90;;;;;;5011330;28;20037;-82
2022/05/25 05:27:45;;;;;;;3.38;1.52;;;14.50;99.90;;;;;;5021979;28;20407;-80
2022/05/25 05:30:14;;;;;;;7.00;1.85;;;15.00;99.90;;;;;;5019338;28;20057;-83
2022/05/25 05:32:40;;;;;;;8.82;2.20;;;;;;;;;;5022166;28;20029;-80
2022/05/25 05:35:06;;;;;;;5.25;2.33;;;15.40;99.90;;;;;;5036328;28;20029;-86
2022/05/25 05:37:38;;;;;;;8.27;2.80;;;15.70;99.90;;;;;;5029528;28;20308;-80
2022/05/25 05:40:06;;;;;;;7.63;3.08;;;14.80;99.90;;;;;;5024294;28;20048;-85
2022/05/25 05:42:36;;;;;;;8.13;3.05;;;15.60;99.90;;;;;;5034175;28;20021;-85
2022/05/25 05:45:07;;;;;;;4.28;2.20;;;15.90;99.90;;;;;;5022364;28;20381;-82
2022/05/25 05:47:43;;;;;;;6.82;2.30;;;15.80;99.90;;;;;;5016107;28;20033;-83
2022/05/25 05:50:10;;;;;;;5.25;2.40;;;15.70;99.90;;;;;;5021696;28;20025;-81
2022/05/25 05:52:36;;;;;;;5.60;2.35;;;15.70;99.90;;;;;;5014983;28;20022;-82
2022/05/25 05:55:03;;;;;;;8.60;2.72;;;15.60;99.90;;;;;;5016315;28;20017;-83
2022/05/25 05:57:29;;;;;;;7.22;2.70;;;15.60;99.90;;;;;;5033019;28;20051;-83
2022/05/25 05:59:55;;;;;;;6.38;2.70;;;;;;;;;;5007340;28;20051;-83
2022/05/25 06:02:21;;;;;;;9.38;3.10;;;15.70;99.90;;;;;;5026304;28;20025;-83
2022/05/25 06:04:47;;;;;;;6.07;2.60;;;15.70;99.90;;;;;;5036857;28;20018;-86
2022/05/25 06:07:12;;;;;;;7.93;2.97;;;16.20;99.90;;;;;;5034336;28;20056;-83
2022/05/25 06:09:38;;;;;;;8.77;3.28;;;16.10;99.90;;;;;;5017745;28;20033;-82
2022/05/25 06:12:04;;;;;;;10.98;3.13;;;16.30;99.90;;;;;;5030936;28;20172;-82
2022/05/25 06:14:29;;;;;;;9.23;2.80;;;16.30;99.90;;;;;;5024056;28;20021;-81
2022/05/25 06:19:39;;;;;;;5.43;3.08;;;16.60;99.90;;;;;;5057197;28;20027;-87
2022/05/25 06:22:12;;;;;;;8.80;3.05;;;16.60;99.90;;;;;;5035337;28;20034;-85
2022/05/25 06:24:50;;;;;;;9.15;2.70;;;16.60;99.90;;;;;;5039600;28;20030;-89
2022/05/25 06:27:17;;;;;;;7.10;3.03;;;16.40;99.90;;;;;;5021475;28;20021;-82
2022/05/25 06:29:46;;;;;;;8.15;2.90;;;16.00;99.90;;;;;;5023891;28;20385;-81
2022/05/25 06:32:14;;;;;;;6.57;2.83;;;15.70;99.90;;;;;;5024311;28;20031;-81
2022/05/25 06:34:41;;;;;;;6.45;2.72;;;15.60;99.90;;;;;;5045565;28;20052;-81
2022/05/25 06:37:12;;;;;;;7.97;2.90;;;15.50;99.90;;;;;;5026596;28;20053;-80
2022/05/25 06:39:38;;;;;;;7.97;2.90;;;15.50;99.90;;;;;;5026135;28;20054;-81
2022/05/25 06:42:05;;;;;;;7.45;2.45;;;15.50;99.90;;;;;;5024987;28;20116;-80
2022/05/25 06:44:31;;;;;;;4.78;2.30;;;15.70;99.90;;;;;;5037682;28;20076;-83
2022/05/25 06:46:57;;;;;;;5.45;2.30;;;15.90;99.90;;;;;;5025070;28;20312;-81
2022/05/25 06:49:24;;;;;;;5.30;2.53;;;16.00;99.90;;;;;;5041008;28;20026;-82
2022/05/25 06:51:49;;;;;;;5.85;2.72;;;16.00;99.90;;;;;;5035685;28;20026;-83
2022/05/25 06:54:17;;;;;;;5.25;1.83;;;14.30;99.90;;;;;;5040421;28;20123;-81
2022/05/25 06:56:43;;;;;;;4.47;1.98;;;17.50;99.90;;;;;;5027484;28;20488;-80
2022/05/25 06:59:09;;;;;;;5.20;2.08;;;17.30;99.90;;;;;;5023701;28;20040;-81
2022/05/25 07:01:36;;;;;;;6.53;2.10;;;15.90;99.90;;;;;;5041779;28;21342;-81
2022/05/25 07:04:03;;;;;;;2.60;1.50;;;16.20;99.90;;;;;;5026959;28;20041;-81
2022/05/25 07:06:28;;;;;;;3.75;1.58;;;16.30;99.90;;;;;;5018847;28;20048;-83
2022/05/25 07:08:54;;;;;;;2.65;1.30;;;;;;;;;;5042489;28;20038;-83
2022/05/25 07:11:23;;;;;;;6.88;1.42;;;16.50;99.90;;;;;;5030294;28;20083;-83
2022/05/25 07:13:49;;;;;;;4.75;1.75;;;;;;;;;;5026200;28;20025;-79
2022/05/25 07:16:18;;;;;;;5.03;2.20;;;16.50;99.90;;;;;;5026644;28;20026;-86
2022/05/25 07:18:45;;;;;;;5.43;2.15;;;16.50;99.90;;;;;;5031478;28;20033;-81
2022/05/25 07:21:22;;;;;;;4.20;1.95;;;17.90;99.90;;;;;;5007085;28;20107;-82
2022/05/25 07:23:50;;;;;;;4.10;2.05;;;16.50;99.90;;;;;;5042478;28;20056;-82
2022/05/25 07:26:17;;;;;;;4.75;2.00;;;16.50;99.90;;;;;;5023861;28;20068;-83
2022/05/25 07:28:43;;;;;;;4.70;2.00;;;16.20;99.90;;;;;;5027889;28;20033;-81
2022/05/25 07:31:18;;;;;;;3.92;2.10;;;17.40;99.90;;;;;;5026471;28;20025;-83
2022/05/25 07:33:49;;;;;;;5.40;1.88;;;16.80;99.90;;;;;;5023520;28;20048;-84
2022/05/25 07:36:15;;;;;;;5.90;1.90;;;16.90;99.90;;;;;;5034538;28;20032;-81
2022/05/25 07:38:45;;;;;;;4.45;2.10;;;16.80;99.90;;;;;;5038208;28;20017;-82
2022/05/25 07:41:12;;;;;;;4.78;1.92;;;17.00;99.90;;;;;;5035075;28;20032;-83
2022/05/25 07:43:40;;;;;;;6.55;2.03;;;17.10;99.90;;;;;;5038913;28;20040;-83
2022/05/25 07:46:05;;;;;;;4.50;1.88;;;17.00;99.90;;;;;;5026899;28;20515;-79
2022/05/25 07:48:33;;;;;;;5.28;1.75;;;17.00;99.90;;;;;;5023772;28;20041;-84
2022/05/25 07:50:59;;;;;;;3.45;1.77;;;17.00;99.90;;;;;;5025057;28;20120;-80
2022/05/25 07:56:11;;;;;;;5.65;1.95;;;17.10;99.90;;;;;;5038524;28;20080;-82
2022/05/25 07:58:37;;;;;;;5.53;1.70;;;17.20;99.90;;;;;;5023479;28;20025;-82
2022/05/25 08:01:13;;;;;;;3.65;1.30;;;17.30;99.90;;;;;;5034959;28;20140;-83
2022/05/25 08:06:23;;;;;;;4.32;2.03;;;17.00;99.90;;;;;;5033305;28;20033;-79
2022/05/25 08:08:51;;;;;;;3.08;1.50;;;17.20;99.90;;;;;;5026693;28;20025;-85
2022/05/25 08:11:20;;;;;;;4.80;1.60;;;17.30;99.90;;;;;;5025243;28;20025;-80
2022/05/25 08:13:50;;;;;;;3.28;1.77;;;17.80;99.90;;;;;;5023566;28;20060;-81
2022/05/25 08:16:16;;;;;;;5.38;1.70;;;17.80;99.90;;;;;;5021866;28;20042;-83
2022/05/25 08:18:42;;;;;;;7.07;1.80;;;18.10;99.60;;;;;;5024191;28;20033;-85
2022/05/25 08:21:08;;;;;;;3.47;1.80;;;18.20;99.60;;;;;;5039728;28;20029;-83
2022/05/25 08:23:34;;;;;;;4.63;1.33;;;;;;;;;;5031189;28;20043;-82
2022/05/25 08:26:00;;;;;;;3.22;1.50;;;18.10;99.50;;;;;;5025473;28;20104;-84
2022/05/25 08:28:26;;;;;;;4.25;1.30;;;18.20;99.50;;;;;;5021340;28;20049;-83
2022/05/25 08:30:52;;;;;;;3.05;1.45;;;;;;;;;;5041800;28;20029;-85
2022/05/25 08:33:20;;;;;;;5.72;1.98;;;18.10;99.30;;;;;;5023156;28;20028;-83
2022/05/25 08:35:46;;;;;;;6.13;2.22;;;;;;;;;;5044382;28;20113;-81
2022/05/25 08:38:12;;;;;;;3.85;1.50;;;;;;;;;;5025476;28;20072;-83
2022/05/25 08:40:39;;;;;;;2.38;1.13;;;;;;;;;;5038864;28;20061;-84
2022/05/25 08:43:13;;;;;;;4.43;1.73;;;19.00;98.40;;;;;;5034109;28;20025;-84
2022/05/25 08:45:39;;;;;;;2.80;1.60;;;;;;;;;;5032606;28;20518;-85
2022/05/25 08:48:06;;;;;;;3.10;0.93;;;18.50;97.50;;;;;;5034529;28;20036;-84
2022/05/25 08:50:33;;;;;;;2.05;0.80;;;18.60;96.70;;;;;;5026003;28;20029;-85
2022/05/25 08:53:01;;;;;;;3.20;0.90;;;18.60;96.90;;;;;;5028429;28;20033;-84
2022/05/25 08:55:56;;;;;;;2.78;1.20;;;18.30;97.10;;;;;;5036476;28;20030;-82
2022/05/25 08:58:25;;;;;;;1.50;0.70;;;19.00;96.70;;;;;;4985381;28;20025;-85
2022/05/25 09:00:53;;;;;;;2.73;0.77;;;19.10;95.30;;;;;;5036543;28;20025;-83
2022/05/25 09:03:37;;;;;;;2.22;1.00;;;19.00;95.40;;;;;;5023399;28;20458;-82
2022/05/25 09:06:20;;;;;;;2.30;0.80;;;19.00;95.60;;;;;;5020571;28;20025;-84
2022/05/25 09:09:12;;;;;;;3.40;0.90;;;18.70;95.80;;;;;;5021218;28;20048;-83
2022/05/25 09:11:52;;;;;;;3.90;0.82;;;18.80;95.50;;;;;;5018197;28;20038;-82
2022/05/25 09:14:22;;;;;;;;;;;18.90;94.80;;;;;;5031747;28;20034;-84
2022/05/25 09:16:49;;;;;;;;;;;19.00;94.80;;;;;;5022870;28;20405;-82
2022/05/25 09:19:17;;;;;;;1.75;0.70;;;19.00;95.20;;;;;;5005545;28;19917;-81
2022/05/25 09:21:50;;;;;;;2.20;0.90;;;19.00;94.60;;;;;;5016386;28;20033;-84
2022/05/25 09:24:20;;;;;;;1.80;0.70;;;18.50;94.60;;;;;;5023582;28;20029;-82
2022/05/25 09:26:46;;;;;;;1.17;0.70;;;18.50;94.80;;;;;;5023527;28;20034;-84
2022/05/25 09:29:13;;;;;;;3.05;1.10;;;18.60;94.80;;;;;;5021101;28;20054;-83
2022/05/25 09:31:51;;;;;;;2.50;0.80;;;18.60;94.40;;;;;;5025087;28;20029;-81
2022/05/25 09:34:29;;;;;;;5.28;0.90;;;18.60;94.30;;;;;;5030108;28;20029;-82
2022/05/25 09:37:18;;;;;;;2.92;0.80;;;18.90;94.40;;;;;;5023228;28;20120;-83
2022/05/25 09:39:45;;;;;;;1.92;0.93;;;19.20;93.50;;;;;;5039559;28;20479;-81
2022/05/25 09:42:16;;;;;;;2.97;1.20;;;20.00;92.70;;;;;;5024242;28;20033;-81
2022/05/25 09:44:42;;;;;;;2.50;0.90;;;;;;;;;;5036850;28;20029;-84
2022/05/25 09:47:23;;;;;;;2.88;1.00;;;20.30;88.20;;;;;;5030401;28;20040;-81
2022/05/25 09:49:57;;;;;;;2.38;0.90;;;20.30;88.60;;;;;;5029127;28;20036;-83
2022/05/25 09:52:35;;;;;;;1.50;0.68;;;20.60;88.00;;;;;;5020225;28;20052;-83
2022/05/25 09:55:30;;;;;;;2.30;0.90;;;20.50;87.20;;;;;;5020661;28;20022;-83
2022/05/25 09:58:23;;;;;;;0.90;0.70;;;20.20;84.20;;;;;;5022614;28;20068;-83
2022/05/25 10:01:02;;;;;;;1.48;0.70;;;20.10;84.50;;;;;;5023494;28;20072;-84
2022/05/25 10:03:41;;;;;;;2.97;1.10;;;20.20;84.60;;;;;;5018187;28;20044;-81
2022/05/25 10:06:38;;;;;;;1.73;0.80;;;20.10;85.20;;;;;;5026840;28;20040;-83
2022/05/25 10:09:25;;;;;;;2.58;1.10;;;20.10;86.50;;;;;;5018337;28;20037;-81
2022/05/25 10:11:54;;;;;;;1.65;0.82;;;20.40;85.40;;;;;;5040912;28;20475;-79
2022/05/25 10:14:30;;;;;;;1.45;0.68;;;21.30;82.90;;;;;;5002587;28;20529;-84
2022/05/25 10:17:05;;;;;;;5.93;0.90;;;20.80;80.60;;;;;;5041534;28;20026;-85
2022/05/25 10:19:35;;;;;;;1.40;0.82;;;20.60;81.50;;;;;;5028682;28;20064;-83
2022/05/25 10:22:01;;;;;;;2.53;0.70;;;;;;;;;;5037485;28;20036;-82
2022/05/25 10:24:42;;;;;;;4.38;1.00;;;20.80;81.60;;;;;;5031666;28;20059;-82
2022/05/25 10:27:24;;;;;;;1.50;0.70;;;20.80;82.00;;;;;;5023658;28;20510;-82
2022/05/25 10:38:20;;;;;;;2.40;1.05;;;21.20;79.60;;;;;;5041161;28;20040;-82
2022/05/25 10:40:46;;;;;;;1.30;0.70;;;21.00;79.10;;;;;;5024555;28;20123;-82
2022/05/25 10:43:22;;;;;;;5.35;0.98;;;20.90;79.40;;;;;;5021360;28;20091;-83
2022/05/25 10:45:53;;;;;;;6.28;1.50;;;20.60;80.50;;;;;;5038309;28;20029;-81
2022/05/25 10:48:49;;;;;;;1.65;0.90;;;20.80;80.00;;;;;;5024215;28;20033;-84
2022/05/25 10:51:59;;;;;;;3.00;0.90;;;20.70;79.60;;;;;;5027645;28;20030;-82
2022/05/25 10:54:45;;;;;;;;;;;20.20;80.10;;;;;;4942108;29;20092;-82
2022/05/25 10:57:36;;;;;;;2.38;0.93;;;20.20;82.20;;;;;;4961013;28;19911;-83
2022/05/25 11:00:08;;;;;;;2.25;0.90;;;20.10;80.60;;;;;;5006920;28;20032;-85
2022/05/25 11:03:05;;;;;;;1.95;0.88;;;20.00;80.10;;;;;;5040330;28;20033;-83
2022/05/25 11:05:49;;;;;;;2.75;0.93;;;20.00;81.40;;;;;;5029918;28;20065;-83
2022/05/25 11:08:33;;;;;;;2.25;0.90;;;20.00;81.00;;;;;;5041134;28;20032;-82
2022/05/25 11:11:08;;;;;;;2.22;1.17;;;20.30;79.40;;;;;;5036723;28;20049;-80
2022/05/25 11:13:59;;;;;;;2.15;0.95;;;20.30;79.80;;;;;;5019410;28;20040;-81
2022/05/25 11:16:55;;;;;;;8.57;1.33;;;20.80;80.40;;;;;;5025691;28;20025;-83
2022/05/25 11:19:38;;;;;;;2.90;0.85;;;21.20;77.80;;;;;;5020352;28;20089;-84
2022/05/25 11:22:34;;;;;;;3.50;1.05;;;20.80;75.40;;;;;;5030088;28;20435;-82
2022/05/25 11:25:24;;;;;;;2.40;0.90;;;21.60;75.30;;;;;;5042429;28;20231;-81
2022/05/25 11:27:56;;;;;;;;;;;21.70;75.60;;;;;;5011581;28;20025;-81
2022/05/25 11:30:26;;;;;;;2.75;0.80;;;21.10;79.20;;;;;;5018007;28;19909;-79
2022/05/25 11:33:10;;;;;;;1.30;0.70;;;21.30;76.90;;;;;;5018994;28;20018;-83
2022/05/25 11:35:41;;;;;;;1.70;0.70;;;21.30;76.00;;;;;;5016940;28;20028;-82
2022/05/25 11:38:41;;;;;;;1.85;0.80;;;21.20;76.10;;;;;;5017589;28;20029;-83
2022/05/25 11:41:31;;;;;;;2.92;1.05;;;21.50;76.20;;;;;;5012613;28;20037;-82
2022/05/25 11:44:00;;;;;;;0.75;0.60;;;21.60;77.00;;;;;;5032992;28;20120;-82
2022/05/25 11:46:32;;;;;;;3.25;0.88;;;21.50;76.30;;;;;;5026255;28;20058;-82
2022/05/25 11:48:58;;;;;;;3.35;0.70;;;;;;;;;;5039886;28;20030;-82
2022/05/25 11:54:14;;;;;;;3.70;0.77;;;22.00;73.30;;;;;;5043881;28;20056;-84
2022/05/25 11:56:59;;;;;;;1.13;0.73;;;22.30;73.80;;;;;;5026795;28;20036;-81
2022/05/25 11:59:50;;;;;;;2.45;0.90;;;22.20;74.70;;;;;;5027594;28;20054;-81
2022/05/25 12:02:49;;;;;;;1.98;0.90;;;22.20;74.00;;;;;;5005187;28;20036;-84
2022/05/25 12:05:19;;;;;;;5.40;1.10;;;22.00;74.70;;;;;;5007049;28;20084;-86
2022/05/25 12:08:03;;;;;;;1.92;0.93;;;22.00;75.50;;;;;;5028671;28;20042;-82
2022/05/25 12:10:42;;;;;;;3.40;1.08;;;22.00;72.50;;;;;;5023531;28;20046;-81
2022/05/25 12:13:17;;;;;;;2.72;0.98;;;22.60;72.90;;;;;;5027657;28;20040;-81
2022/05/25 12:16:10;;;;;;;2.38;0.80;;;22.40;72.30;;;;;;5028500;28;20022;-83
2022/05/25 12:19:02;;;;;;;3.58;0.90;;;22.60;71.50;;;;;;5025472;28;20034;-84
2022/05/25 12:21:35;;;;;;;0.80;0.68;;;23.00;71.50;;;;;;5029266;28;20068;-82
2022/05/25 12:24:13;;;;;;;3.80;0.93;;;23.00;69.30;;;;;;5007235;28;20486;-82
2022/05/25 12:26:39;;;;;;;1.08;0.60;;;;;;;;;;5012045;28;20057;-84
2022/05/25 12:29:19;;;;;;;1.38;0.70;;;23.10;67.80;;;;;;5005264;28;20018;-82
2022/05/25 12:31:49;;;;;;;3.47;0.60;;;23.10;67.90;;;;;;5020363;28;20044;-84
2022/05/25 12:34:20;;;;;;;1.50;0.80;;;23.00;68.40;;;;;;5005920;28;20010;-83
2022/05/25 12:36:46;;;;;;;3.40;1.15;;;;;;;;;;4989600;28;20070;-84
2022/05/25 12:39:12;;;;;;;1.00;0.52;;;23.20;71.60;;;;;;5023294;28;20037;-81
2022/05/25 12:41:39;;;;;;;3.58;0.70;;;22.80;71.10;;;;;;5027054;28;20041;-84
2022/05/25 12:49:38;;;;;;;2.97;0.90;;;22.30;71.50;;;;;;5034042;28;20040;-85
2022/05/25 12:52:37;;;;;;;1.85;0.85;;;24.00;73.00;;;;;;5032922;28;20030;-85
2022/05/25 12:55:15;;;;;;;1.38;0.65;;;22.30;70.60;;;;;;5029004;28;20029;-85
2022/05/25 12:57:50;;;;;;;2.05;0.57;;;22.20;70.90;;;;;;5021165;28;20093;-83
2022/05/25 13:00:27;;;;;;;2.80;0.50;;;22.50;69.80;;;;;;5002528;28;20435;-84
2022/05/25 13:02:53;;;;;;;2.10;0.90;;;22.70;69.40;;;;;;5003735;28;20017;-83
2022/05/25 13:05:47;;;;;;;2.83;0.70;;;23.00;70.30;;;;;;5012881;28;20054;-84
2022/05/25 13:08:47;;;;;;;2.13;0.60;;;23.20;67.60;;;;;;5031833;28;20104;-82
2022/05/25 13:11:45;;;;;;;1.88;0.50;;;22.90;67.50;;;;;;5040326;28;20025;-84
2022/05/25 13:14:16;;;;;;;1.80;0.70;;;22.60;68.60;;;;;;5041277;28;20028;-85
2022/05/25 13:16:42;;;;;;;1.27;0.70;;;22.60;69.30;;;;;;5037867;28;20050;-82
2022/05/25 13:19:32;;;;;;;1.50;0.60;;;22.60;68.10;;;;;;5028026;28;20026;-84
2022/05/25 13:22:02;;;;;;;2.25;0.80;;;;;;;;;;5032664;28;20021;-83
2022/05/25 13:24:43;;;;;;;1.08;0.40;;;22.10;67.20;;;;;;4999610;28;20026;-81
2022/05/25 13:27:19;;;;;;;1.75;0.70;;;22.00;66.80;;;;;;5032607;28;20090;-83
2022/05/25 13:30:07;;;;;;;2.63;0.70;;;23.00;68.00;;;;;;5024197;28;20017;-84
2022/05/25 13:32:40;;;;;;;3.35;0.98;;;22.70;66.90;;;;;;5028843;28;20026;-84
2022/05/25 13:35:28;;;;;;;1.48;0.70;;;22.80;67.40;;;;;;5026599;28;20018;-83
2022/05/25 13:38:03;;;;;;;3.53;1.08;;;22.90;66.50;;;;;;5000091;28;20026;-85
2022/05/25 13:40:43;;;;;;;3.88;0.80;;;23.10;64.70;;;;;;5031103;28;20030;-84
2022/05/25 13:43:12;;;;;;;1.77;0.82;;;23.00;65.00;;;;;;5023808;28;20109;-84
2022/05/25 13:45:42;;;;;;;1.83;0.60;;;22.90;64.10;;;;;;5017293;28;20128;-83
2022/05/25 13:48:10;;;;;;;;;;;22.80;64.60;;;;;;5034512;28;20164;-83
2022/05/25 13:50:39;;;;;;;1.83;0.70;;;22.70;65.60;;;;;;5036068;28;19984;-84
2022/05/25 13:53:09;;;;;;;2.65;0.80;;;22.50;66.70;;;;;;5012492;28;20086;-84